createdAt,value
2018-07-21T00:00:51.189Z,71.07
2018-07-21T00:03:20.537Z,71.32
2018-07-21T00:05:49.874Z,71.89
2018-07-21T00:08:19.193Z,71.82
2018-07-21T00:10:48.578Z,71.00
2018-07-21T00:13:17.967Z,72.03
2018-07-21T00:15:47.302Z,70.89
2018-07-21T00:18:16.671Z,70.96
2018-07-21T00:20:46.022Z,71.58
2018-07-21T00:23:15.415Z,71.79
2018-07-21T00:25:44.797Z,71.62
2018-07-21T00:28:14.437Z,70.70
2018-07-21T00:30:43.804Z,71.38
2018-07-21T00:33:13.187Z,71.64
2018-07-21T00:35:42.657Z,72.22
2018-07-21T00:38:12.307Z,71.16
2018-07-21T00:40:42.081Z,71.95
2018-07-21T00:43:11.429Z,71.76
2018-07-21T00:45:40.785Z,71.32
2018-07-21T00:48:10.376Z,71.35
2018-07-21T00:50:39.701Z,71.51
2018-07-21T00:53:09.055Z,72.09
2018-07-21T00:55:38.410Z,72.54
2018-07-21T00:58:11.252Z,72.17
2018-07-21T01:00:40.738Z,71.67
2018-07-21T01:03:10.066Z,71.30
2018-07-21T01:05:39.425Z,71.06
2018-07-21T01:08:09.113Z,71.95
2018-07-21T01:10:38.462Z,70.90
2018-07-21T01:13:07.829Z,72.56
2018-07-21T01:15:37.154Z,73.51
2018-07-21T01:18:06.866Z,72.89
2018-07-21T01:20:36.565Z,72.45
2018-07-21T01:23:06.027Z,72.55
2018-07-21T01:25:35.430Z,72.94
2018-07-21T01:28:05.083Z,73.23
2018-07-21T01:30:34.409Z,73.28
2018-07-21T01:33:03.791Z,74.60
2018-07-21T01:35:33.139Z,74.81
2018-07-21T01:38:02.450Z,75.10
2018-07-21T01:40:38.153Z,74.52
2018-07-21T01:43:07.539Z,75.19
2018-07-21T01:45:37.377Z,74.66
2018-07-21T01:48:07.229Z,74.62
2018-07-21T01:50:36.600Z,74.33
2018-07-21T01:53:05.943Z,74.34
2018-07-21T01:55:35.299Z,74.47
2018-07-21T01:58:04.670Z,73.08
2018-07-21T02:00:34.082Z,74.53
2018-07-21T02:03:03.625Z,73.20
2018-07-21T02:05:32.957Z,72.94
2018-07-21T02:08:02.328Z,73.16
2018-07-21T02:10:31.673Z,73.52
2018-07-21T02:13:01.313Z,73.25
2018-07-21T02:15:30.712Z,73.03
2018-07-21T02:18:00.273Z,72.64
2018-07-21T02:20:29.758Z,73.06
2018-07-21T02:22:59.253Z,69.99
2018-07-21T02:25:28.645Z,70.49
2018-07-21T02:27:58.002Z,70.80
2018-07-21T02:30:27.417Z,72.13
2018-07-21T02:32:56.734Z,70.78
2018-07-21T02:35:26.107Z,72.81
2018-07-21T02:37:55.724Z,69.19
2018-07-21T02:40:25.605Z,69.35
2018-07-21T02:42:54.925Z,70.31
2018-07-21T02:45:24.016Z,69.27
2018-07-21T02:47:53.116Z,68.60
2018-07-21T02:50:22.485Z,69.63
2018-07-21T02:52:51.842Z,69.18
2018-07-21T02:55:21.127Z,68.78
2018-07-21T02:57:50.449Z,69.51
2018-07-21T03:00:19.780Z,70.12
2018-07-21T03:02:49.173Z,69.44
2018-07-21T03:05:18.552Z,69.23
2018-07-21T03:07:47.880Z,69.07
2018-07-21T03:10:17.245Z,69.47
2018-07-21T03:12:46.679Z,69.25
2018-07-21T03:15:16.015Z,68.70
2018-07-21T03:17:45.349Z,69.60
2018-07-21T03:20:14.852Z,69.01
2018-07-21T03:22:45.060Z,69.51
2018-07-21T03:25:14.393Z,69.66
2018-07-21T03:27:43.861Z,69.78
2018-07-21T03:30:13.181Z,70.74
2018-07-21T03:32:42.517Z,70.45
2018-07-21T03:35:11.853Z,70.47
2018-07-21T03:37:41.226Z,70.96
2018-07-21T03:40:10.543Z,70.04
2018-07-21T03:42:39.889Z,70.06
2018-07-21T03:45:09.267Z,70.05
2018-07-21T03:47:38.623Z,70.39
2018-07-21T03:50:08.236Z,69.56
2018-07-21T03:52:37.627Z,70.17
2018-07-21T03:55:07.062Z,70.74
2018-07-21T03:57:36.358Z,70.39
2018-07-21T04:00:06.217Z,70.02
2018-07-21T04:02:36.611Z,70.54
2018-07-21T04:05:06.632Z,70.37
2018-07-21T04:07:35.955Z,70.26
2018-07-21T04:10:06.295Z,70.99
2018-07-21T04:12:35.665Z,70.94
2018-07-21T04:15:05.381Z,70.50
2018-07-21T04:17:34.744Z,71.20
2018-07-21T04:20:04.108Z,70.91
2018-07-21T04:22:33.492Z,70.91
2018-07-21T04:25:02.834Z,70.75
2018-07-21T04:27:32.181Z,71.33
2018-07-21T04:30:01.536Z,70.90
2018-07-21T04:32:30.897Z,71.46
2018-07-21T04:35:00.045Z,71.32
2018-07-21T04:37:29.441Z,70.33
2018-07-21T04:39:58.899Z,70.89
2018-07-21T04:42:28.268Z,71.38
2018-07-21T04:44:57.705Z,71.54
2018-07-21T04:47:27.011Z,72.09
2018-07-21T04:49:57.385Z,71.80
2018-07-21T04:52:26.740Z,72.44
2018-07-21T04:54:56.129Z,72.23
2018-07-21T04:57:25.705Z,72.54
2018-07-21T04:59:55.044Z,71.97
2018-07-21T05:02:24.413Z,72.80
2018-07-21T05:04:53.783Z,72.14
2018-07-21T05:07:23.216Z,73.30
2018-07-21T05:09:52.556Z,74.28
2018-07-21T05:12:21.895Z,74.17
2018-07-21T05:14:51.227Z,74.03
2018-07-21T05:17:20.559Z,74.03
2018-07-21T05:19:49.893Z,74.82
2018-07-21T05:22:19.238Z,75.20
2018-07-21T05:24:48.553Z,75.15
2018-07-21T05:27:17.912Z,75.17
2018-07-21T05:29:47.430Z,74.60
2018-07-21T05:32:16.984Z,75.27
2018-07-21T05:34:46.406Z,74.23
2018-07-21T05:37:15.778Z,74.51
2018-07-21T05:39:45.133Z,75.42
2018-07-21T05:42:14.487Z,75.93
2018-07-21T05:44:43.901Z,75.90
2018-07-21T05:47:13.219Z,75.24
2018-07-21T05:49:42.541Z,76.20
2018-07-21T05:52:11.929Z,76.26
2018-07-21T05:54:41.405Z,76.04
2018-07-21T05:57:10.700Z,76.22
2018-07-21T05:59:40.033Z,76.38
2018-07-21T06:02:09.549Z,76.40
2018-07-21T06:04:38.950Z,76.48
2018-07-21T06:07:08.307Z,75.66
2018-07-21T06:09:37.605Z,74.97
2018-07-21T06:12:06.987Z,75.71
2018-07-21T06:14:36.317Z,75.21
2018-07-21T06:17:05.931Z,75.36
2018-07-21T06:19:35.029Z,75.21
2018-07-21T06:22:04.409Z,74.08
2018-07-21T06:24:33.835Z,74.71
2018-07-21T06:27:03.253Z,74.84
2018-07-21T06:29:32.745Z,75.13
2018-07-21T06:32:05.233Z,75.59
2018-07-21T06:34:34.632Z,75.62
2018-07-21T06:37:03.960Z,76.58
2018-07-21T06:39:33.362Z,77.05
2018-07-21T06:42:02.853Z,76.83
2018-07-21T06:44:32.229Z,77.54
2018-07-21T06:47:01.649Z,77.19
2018-07-21T06:49:31.057Z,77.58
2018-07-21T06:52:00.421Z,77.25
2018-07-21T06:54:29.813Z,77.21
2018-07-21T06:56:59.180Z,76.50
2018-07-21T06:59:28.614Z,75.30
2018-07-21T07:01:58.021Z,75.21
2018-07-21T07:04:27.425Z,75.74
2018-07-21T07:06:56.870Z,76.82
2018-07-21T07:09:26.241Z,76.62
2018-07-21T07:11:55.585Z,76.79
2018-07-21T07:14:24.927Z,77.20
2018-07-21T07:16:54.415Z,76.69
2018-07-21T07:19:23.812Z,76.09
2018-07-21T07:21:53.195Z,76.56
2018-07-21T07:24:22.634Z,75.94
2018-07-21T07:26:51.977Z,75.51
2018-07-21T07:29:21.495Z,75.36
2018-07-21T07:31:50.952Z,74.82
2018-07-21T07:34:20.322Z,73.22
2018-07-21T07:36:49.737Z,72.13
2018-07-21T07:39:19.258Z,73.04
2018-07-21T07:41:48.781Z,72.05
2018-07-21T07:44:18.161Z,73.32
2018-07-21T07:46:47.545Z,73.45
2018-07-21T07:49:16.907Z,73.30
2018-07-21T07:51:46.315Z,73.84
2018-07-21T07:54:15.763Z,73.26
2018-07-21T07:56:45.951Z,73.38
2018-07-21T07:59:15.345Z,73.75
2018-07-21T08:01:44.729Z,73.73
2018-07-21T08:04:14.135Z,74.64
2018-07-21T08:06:43.634Z,72.48
2018-07-21T08:09:13.606Z,72.53
2018-07-21T08:11:43.667Z,72.37
2018-07-21T08:14:13.102Z,73.28
2018-07-21T08:16:42.764Z,73.89
2018-07-21T08:19:12.107Z,72.66
2018-07-21T08:21:41.481Z,71.69
2018-07-21T08:24:11.328Z,70.71
2018-07-21T08:26:40.709Z,71.41
2018-07-21T08:29:10.093Z,71.76
2018-07-21T08:31:39.463Z,70.80
2018-07-21T08:34:08.815Z,70.94
2018-07-21T08:36:38.139Z,72.09
2018-07-21T08:39:08.892Z,72.26
2018-07-21T08:41:38.301Z,73.08
2018-07-21T08:44:07.777Z,72.66
2018-07-21T08:46:37.197Z,73.39
2018-07-21T08:49:06.618Z,73.15
2018-07-21T08:51:36.070Z,73.29
2018-07-21T08:54:05.434Z,74.13
2018-07-21T08:56:34.891Z,74.56
2018-07-21T08:59:03.985Z,74.06
2018-07-21T09:01:33.319Z,73.48
2018-07-21T09:04:02.765Z,73.89
2018-07-21T09:06:32.145Z,74.45
2018-07-21T09:09:02.474Z,73.98
2018-07-21T09:11:32.064Z,74.91
2018-07-21T09:14:01.496Z,74.78
2018-07-21T09:16:31.021Z,73.34
2018-07-21T09:19:00.503Z,74.62
2018-07-21T09:21:30.042Z,74.27
2018-07-21T09:23:59.727Z,74.64
2018-07-21T09:26:29.197Z,73.91
2018-07-21T09:28:58.599Z,74.63
2018-07-21T09:31:28.507Z,75.20
2018-07-21T09:33:58.123Z,75.60
2018-07-21T09:36:27.537Z,73.68
2018-07-21T09:38:56.853Z,74.26
2018-07-21T09:41:26.259Z,74.53
2018-07-21T09:43:55.680Z,73.74
2018-07-21T09:46:25.057Z,74.62
2018-07-21T09:48:54.397Z,74.72
2018-07-21T09:51:23.747Z,73.86
2018-07-21T09:53:52.945Z,74.93
2018-07-21T09:56:22.433Z,75.59
2018-07-21T09:58:51.852Z,75.33
2018-07-21T10:01:21.197Z,74.82
2018-07-21T10:03:50.616Z,74.73
2018-07-21T10:06:19.974Z,74.27
2018-07-21T10:08:49.374Z,73.42
2018-07-21T10:11:18.781Z,73.18
2018-07-21T10:13:48.239Z,74.09
2018-07-21T10:16:17.601Z,74.20
2018-07-21T10:18:46.698Z,75.33
2018-07-21T10:21:16.102Z,74.37
2018-07-21T10:23:45.474Z,76.67
2018-07-21T10:26:20.111Z,76.14
2018-07-21T10:28:54.780Z,77.43
2018-07-21T10:31:24.295Z,77.77
2018-07-21T10:33:53.778Z,77.76
2018-07-21T10:36:23.085Z,76.83
2018-07-21T10:38:52.496Z,77.56
2018-07-21T10:41:21.865Z,77.73
2018-07-21T10:43:51.312Z,78.01
2018-07-21T10:46:20.705Z,76.46
2018-07-21T10:48:50.025Z,77.18
2018-07-21T10:51:19.489Z,77.84
2018-07-21T10:53:48.844Z,76.62
2018-07-21T10:56:18.249Z,76.82
2018-07-21T10:58:47.946Z,77.37
2018-07-21T11:01:17.775Z,76.13
2018-07-21T11:03:47.249Z,76.49
2018-07-21T11:06:16.666Z,77.25
2018-07-21T11:08:46.005Z,77.20
2018-07-21T11:11:15.476Z,77.11
2018-07-21T11:13:44.817Z,76.11
2018-07-21T11:16:14.214Z,75.98
2018-07-21T11:18:43.619Z,75.43
2018-07-21T11:21:12.729Z,75.21
2018-07-21T11:23:42.119Z,74.32
2018-07-21T11:26:11.454Z,73.72
2018-07-21T11:28:40.822Z,74.54
2018-07-21T11:31:10.178Z,74.84
2018-07-21T11:33:39.605Z,74.19
2018-07-21T11:36:09.223Z,73.48
2018-07-21T11:38:38.330Z,74.56
2018-07-21T11:41:07.749Z,73.88
2018-07-21T11:43:37.345Z,73.64
2018-07-21T11:46:06.701Z,73.88
2018-07-21T11:48:36.063Z,72.82
2018-07-21T11:51:05.433Z,74.58
2018-07-21T11:53:34.894Z,73.40
2018-07-21T11:56:04.281Z,74.10
2018-07-21T11:58:33.708Z,73.38
2018-07-21T12:01:03.218Z,73.63
2018-07-21T12:03:32.571Z,74.43
2018-07-21T12:06:01.979Z,72.57
2018-07-21T12:08:31.591Z,73.54
2018-07-21T12:11:01.137Z,73.89
2018-07-21T12:13:30.620Z,73.51
2018-07-21T12:16:00.044Z,72.82
2018-07-21T12:18:29.278Z,73.66
2018-07-21T12:20:58.835Z,74.44
2018-07-21T12:23:28.436Z,72.08
2018-07-21T12:25:57.850Z,74.11
2018-07-21T12:28:27.208Z,73.64
2018-07-21T12:30:56.773Z,74.53
2018-07-21T12:33:26.203Z,73.66
2018-07-21T12:35:55.562Z,72.93
2018-07-21T12:38:24.991Z,73.99
2018-07-21T12:40:54.436Z,74.05
2018-07-21T12:43:23.900Z,73.71
2018-07-21T12:45:53.257Z,73.77
2018-07-21T12:48:23.046Z,73.90
2018-07-21T12:50:52.776Z,73.03
2018-07-21T12:53:22.155Z,73.25
2018-07-21T12:55:51.576Z,73.29
2018-07-21T12:58:20.938Z,73.44
2018-07-21T13:00:50.389Z,73.48
2018-07-21T13:03:19.748Z,72.79
2018-07-21T13:05:49.246Z,72.05
2018-07-21T13:08:18.937Z,71.85
2018-07-21T13:10:48.629Z,70.28
2018-07-21T13:13:18.157Z,70.42
2018-07-21T13:15:48.012Z,70.76
2018-07-21T13:18:17.746Z,70.60
2018-07-21T13:20:47.342Z,71.01
2018-07-21T13:23:16.757Z,70.65
2018-07-21T13:25:46.111Z,71.85
2018-07-21T13:28:15.473Z,71.19
2018-07-21T13:30:44.861Z,70.75
2018-07-21T13:33:14.364Z,72.25
2018-07-21T13:35:43.862Z,71.49
2018-07-21T13:38:13.828Z,72.94
2018-07-21T13:40:43.846Z,71.79
2018-07-21T13:43:13.291Z,72.72
2018-07-21T13:45:42.696Z,72.37
2018-07-21T13:48:12.183Z,70.15
2018-07-21T13:50:41.312Z,70.68
2018-07-21T13:53:10.651Z,70.16
2018-07-21T13:55:40.020Z,70.88
2018-07-21T13:58:09.418Z,71.65
2018-07-21T14:00:38.777Z,71.23
2018-07-21T14:03:08.139Z,72.18
2018-07-21T14:05:37.505Z,70.82
2018-07-21T14:08:08.234Z,70.17
2018-07-21T14:10:37.629Z,70.04
2018-07-21T14:13:07.500Z,70.63
2018-07-21T14:15:37.644Z,70.65
2018-07-21T14:18:07.963Z,70.66
2018-07-21T14:20:37.309Z,70.58
2018-07-21T14:23:06.675Z,69.43
2018-07-21T14:25:36.149Z,71.05
2018-07-21T14:28:05.899Z,67.78
2018-07-21T14:30:35.250Z,69.59
2018-07-21T14:33:04.706Z,69.94
2018-07-21T14:35:34.586Z,70.29
2018-07-21T14:38:04.029Z,70.19
2018-07-21T14:40:34.088Z,71.29
2018-07-21T14:43:03.481Z,68.72
2018-07-21T14:45:32.933Z,69.44
2018-07-21T14:48:02.344Z,69.08
2018-07-21T14:50:31.804Z,69.29
2018-07-21T14:53:01.176Z,68.09
2018-07-21T14:55:30.607Z,66.20
2018-07-21T14:58:00.307Z,67.30
2018-07-21T15:00:29.698Z,68.06
2018-07-21T15:02:59.113Z,70.95
2018-07-21T15:05:28.564Z,69.52
2018-07-21T15:07:57.933Z,67.16
2018-07-21T15:10:27.634Z,67.73
2018-07-21T15:12:56.990Z,68.47
2018-07-21T15:15:26.705Z,68.89
2018-07-21T15:17:56.142Z,69.16
2018-07-21T15:20:25.755Z,69.08
2018-07-21T15:22:55.119Z,69.99
2018-07-21T15:25:24.437Z,69.14
2018-07-21T15:27:53.800Z,68.91
2018-07-21T15:30:23.162Z,69.98
2018-07-21T15:32:52.550Z,70.13
2018-07-21T15:35:21.949Z,70.74
2018-07-21T15:37:51.313Z,70.29
2018-07-21T15:40:20.684Z,70.43
2018-07-21T15:42:50.002Z,71.05
2018-07-21T15:45:19.422Z,70.07
2018-07-21T15:47:48.867Z,71.08
2018-07-21T15:50:18.162Z,70.01
2018-07-21T15:52:47.652Z,71.31
2018-07-21T15:55:17.053Z,70.33
2018-07-21T15:57:46.456Z,69.26
2018-07-21T16:00:15.550Z,70.57
2018-07-21T16:02:44.940Z,71.49
2018-07-21T16:05:14.325Z,71.36
2018-07-21T16:07:43.662Z,71.29
2018-07-21T16:10:13.003Z,71.90
2018-07-21T16:12:42.421Z,71.56
2018-07-21T16:15:11.847Z,72.21
2018-07-21T16:17:41.193Z,72.50
2018-07-21T16:20:10.579Z,72.14
2018-07-21T16:22:39.946Z,72.22
2018-07-21T16:25:09.287Z,71.91
2018-07-21T16:27:38.700Z,71.60
2018-07-21T16:30:08.146Z,71.95
2018-07-21T16:32:37.599Z,71.89
2018-07-21T16:35:07.329Z,72.95
2018-07-21T16:37:36.764Z,72.63
2018-07-21T16:40:06.125Z,73.27
2018-07-21T16:42:35.494Z,72.11
2018-07-21T16:45:05.010Z,73.00
2018-07-21T16:47:34.324Z,71.98
2018-07-21T16:50:03.729Z,71.60
2018-07-21T16:52:33.088Z,71.88
2018-07-21T16:55:02.414Z,71.04
2018-07-21T16:57:31.934Z,70.81
2018-07-21T17:00:02.427Z,70.27
2018-07-21T17:02:31.677Z,70.43
2018-07-21T17:05:01.160Z,70.00
2018-07-21T17:07:30.725Z,70.07
2018-07-21T17:10:00.234Z,68.34
2018-07-21T17:12:29.723Z,69.22
2018-07-21T17:14:59.169Z,68.40
2018-07-21T17:17:28.793Z,67.58
2018-07-21T17:19:58.144Z,68.00
2018-07-21T17:22:27.494Z,68.60
2018-07-21T17:24:57.121Z,68.04
2018-07-21T17:27:26.665Z,68.43
2018-07-21T17:29:56.401Z,67.97
2018-07-21T17:32:25.862Z,69.43
2018-07-21T17:34:56.333Z,69.35
2018-07-21T17:37:26.740Z,68.74
2018-07-21T17:39:56.169Z,68.84
2018-07-21T17:42:25.560Z,69.16
2018-07-21T17:44:55.027Z,69.58
2018-07-21T17:47:24.452Z,69.94
2018-07-21T17:49:53.880Z,69.67
2018-07-21T17:52:23.282Z,70.77
2018-07-21T17:54:52.840Z,70.20
2018-07-21T17:57:22.294Z,69.99
2018-07-21T17:59:52.804Z,70.60
2018-07-21T18:02:22.220Z,70.53
2018-07-21T18:04:51.626Z,72.12
2018-07-21T18:07:21.076Z,74.13
2018-07-21T18:09:57.008Z,73.24
2018-07-21T18:12:26.484Z,73.98
2018-07-21T18:14:56.232Z,73.90
2018-07-21T18:17:25.747Z,74.97
2018-07-21T18:19:55.139Z,75.89
2018-07-21T18:22:24.643Z,76.64
2018-07-21T18:24:54.142Z,77.17
2018-07-21T18:27:23.934Z,78.16
2018-07-21T18:29:53.331Z,78.79
2018-07-21T18:32:22.775Z,78.67
2018-07-21T18:34:52.188Z,78.03
2018-07-21T18:37:21.616Z,78.24
2018-07-21T18:39:51.049Z,78.03
2018-07-21T18:42:20.573Z,77.82
2018-07-21T18:44:49.947Z,78.80
2018-07-21T18:47:19.415Z,78.52
2018-07-21T18:49:48.986Z,77.94
2018-07-21T18:52:18.410Z,77.46
2018-07-21T18:54:48.061Z,76.98
2018-07-21T18:57:17.505Z,76.60
2018-07-21T18:59:47.062Z,77.80
2018-07-21T19:02:16.506Z,77.83
2018-07-21T19:04:46.157Z,77.65
2018-07-21T19:07:15.596Z,77.59
2018-07-21T19:09:45.012Z,77.57
2018-07-21T19:12:20.584Z,77.86
2018-07-21T19:14:50.015Z,77.53
2018-07-21T19:17:19.526Z,77.86
2018-07-21T19:19:53.985Z,78.34
2018-07-21T19:22:23.317Z,78.32
2018-07-21T19:24:52.783Z,78.43
2018-07-21T19:27:33.479Z,78.69
2018-07-21T19:30:03.526Z,78.35
2018-07-21T19:32:38.201Z,78.87
2018-07-21T19:35:07.931Z,79.45
2018-07-21T19:37:51.907Z,79.41
2018-07-21T19:40:21.689Z,79.89
2018-07-21T19:42:51.080Z,79.72
2018-07-21T19:45:21.765Z,79.63
2018-07-21T19:47:55.375Z,79.65
2018-07-21T19:50:24.694Z,79.17
2018-07-21T19:52:54.045Z,79.13
2018-07-21T19:55:23.381Z,79.46
2018-07-21T19:57:52.823Z,79.97
2018-07-21T20:00:22.198Z,79.08
2018-07-21T20:02:51.602Z,79.26
2018-07-21T20:05:21.109Z,79.41
2018-07-21T20:07:50.944Z,79.01
2018-07-21T20:10:20.350Z,79.79
2018-07-21T20:12:49.711Z,79.48
2018-07-21T20:15:19.409Z,79.14
2018-07-21T20:17:48.999Z,79.18
2018-07-21T20:20:20.418Z,79.23
2018-07-21T20:22:49.857Z,79.99
2018-07-21T20:25:19.324Z,80.31
2018-07-21T20:27:48.766Z,79.60
2018-07-21T20:30:18.628Z,80.09
2018-07-21T20:32:48.200Z,80.50
2018-07-21T20:35:17.677Z,81.27
2018-07-21T20:37:47.224Z,80.63
2018-07-21T20:40:16.933Z,81.22
2018-07-21T20:42:46.450Z,80.17
2018-07-21T20:45:16.251Z,80.69
2018-07-21T20:47:49.118Z,81.30
2018-07-21T20:50:18.572Z,80.58
2018-07-21T20:52:48.116Z,80.84
2018-07-21T20:55:17.559Z,81.49
2018-07-21T20:57:46.975Z,80.92
2018-07-21T21:00:16.497Z,81.07
2018-07-21T21:02:45.805Z,80.72
2018-07-21T21:05:15.265Z,80.70
2018-07-21T21:07:44.799Z,80.65
2018-07-21T21:10:14.231Z,80.40
2018-07-21T21:12:43.701Z,80.50
2018-07-21T21:15:13.433Z,80.99
2018-07-21T21:17:43.237Z,80.39
2018-07-21T21:20:12.715Z,80.84
2018-07-21T21:22:42.496Z,80.79
2018-07-21T21:25:11.877Z,81.30
2018-07-21T21:27:44.891Z,81.71
2018-07-21T21:30:14.263Z,81.39
2018-07-21T21:32:43.794Z,81.94
2018-07-21T21:35:13.244Z,82.21
2018-07-21T21:37:42.811Z,82.61
2018-07-21T21:40:12.277Z,84.22
2018-07-21T21:42:41.815Z,84.06
2018-07-21T21:45:11.155Z,83.99
2018-07-21T21:47:40.569Z,84.06
2018-07-21T21:50:10.046Z,84.42
2018-07-21T21:52:39.483Z,83.49
2018-07-21T21:55:08.839Z,83.52
2018-07-21T21:57:38.257Z,83.38
2018-07-21T22:00:12.434Z,83.84
2018-07-21T22:02:42.507Z,83.86
2018-07-21T22:05:12.859Z,83.85
2018-07-21T22:07:42.259Z,83.83
2018-07-21T22:10:11.572Z,84.02
2018-07-21T22:12:41.300Z,85.15
2018-07-21T22:15:15.989Z,85.35
2018-07-21T22:17:45.441Z,84.27
2018-07-21T22:20:14.849Z,84.45
2018-07-21T22:22:44.745Z,85.54
2018-07-21T22:25:14.086Z,85.36
2018-07-21T22:27:43.409Z,85.01
2018-07-21T22:30:18.725Z,85.22
2018-07-21T22:32:48.490Z,85.05
2018-07-21T22:35:17.884Z,84.65
2018-07-21T22:37:47.304Z,85.36
2018-07-21T22:40:16.617Z,84.37
2018-07-21T22:42:46.180Z,84.46
2018-07-21T22:45:15.615Z,84.65
2018-07-21T22:47:44.992Z,83.92
2018-07-21T22:50:14.320Z,84.59
2018-07-21T22:52:43.721Z,83.62
2018-07-21T22:55:13.233Z,84.26
2018-07-21T22:57:42.765Z,85.31
2018-07-21T23:00:12.229Z,85.04
2018-07-21T23:02:42.109Z,85.32
2018-07-21T23:05:12.143Z,84.74
2018-07-21T23:07:41.486Z,85.24
2018-07-21T23:10:10.810Z,85.05
2018-07-21T23:12:40.146Z,85.76
2018-07-21T23:15:10.557Z,85.71
2018-07-21T23:17:39.933Z,85.61
2018-07-21T23:20:10.235Z,84.89
2018-07-21T23:22:39.601Z,84.62
2018-07-21T23:25:08.981Z,85.44
2018-07-21T23:27:38.311Z,85.71
2018-07-21T23:30:07.721Z,85.90
2018-07-21T23:32:37.519Z,85.35
2018-07-21T23:35:07.027Z,84.93
2018-07-21T23:37:36.404Z,85.64
2018-07-21T23:40:07.002Z,85.80
2018-07-21T23:42:36.454Z,85.46
2018-07-21T23:45:06.257Z,84.71
2018-07-21T23:47:36.612Z,85.42
2018-07-21T23:50:06.026Z,85.83
2018-07-21T23:52:35.423Z,85.55
2018-07-21T23:55:07.597Z,85.04
2018-07-21T23:57:37.311Z,84.71
